createdAt,value
2023-03-06T08:29:45.084Z,21.70
2023-03-06T08:32:13.378Z,23.27
2023-03-06T08:34:42.492Z,21.58
2023-03-06T08:37:10.276Z,23.10
2023-03-06T08:39:38.090Z,23.50
2023-03-06T08:42:05.929Z,23.90
2023-03-06T08:44:34.307Z,30.35
2023-03-06T08:47:03.773Z,24.65
2023-03-06T08:49:31.733Z,28.05
2023-03-06T08:51:59.515Z,22.70
2023-03-06T08:54:27.322Z,23.40
2023-03-06T08:56:55.264Z,19.63
2023-03-06T08:59:24.716Z,22.85
2023-03-06T09:01:52.705Z,22.77
2023-03-06T09:04:21.858Z,25.63
2023-03-06T09:06:49.672Z,25.02
2023-03-06T09:09:17.659Z,22.20
2023-03-06T09:11:45.656Z,21.00
2023-03-06T09:14:14.462Z,20.73
2023-03-06T09:16:42.371Z,20.00
2023-03-06T09:19:10.353Z,22.33
2023-03-06T09:21:39.525Z,22.05
2023-03-06T09:24:07.844Z,22.10
2023-03-06T09:26:45.458Z,25.08
2023-03-06T09:29:16.273Z,20.40
2023-03-06T09:31:44.463Z,22.58
2023-03-06T09:34:12.343Z,25.75
2023-03-06T09:36:56.104Z,22.73
2023-03-06T09:39:26.116Z,20.95
2023-03-06T09:41:55.138Z,25.65
2023-03-06T09:44:25.963Z,19.65
2023-03-06T09:47:20.396Z,27.35
2023-03-06T09:50:04.928Z,25.27
2023-03-06T09:52:40.414Z,23.42
2023-03-06T09:55:13.373Z,22.95
2023-03-06T09:57:46.271Z,23.58
2023-03-06T10:00:17.622Z,22.42
2023-03-06T10:02:48.786Z,27.20
2023-03-06T10:05:21.380Z,24.00
2023-03-06T10:07:56.800Z,24.05
2023-03-06T10:10:27.778Z,25.60
2023-03-06T10:13:03.198Z,27.10
2023-03-06T10:15:34.484Z,25.88
2023-03-06T10:18:04.040Z,21.38
2023-03-06T10:20:37.678Z,20.60
2023-03-06T10:23:29.722Z,21.42
2023-03-06T10:26:01.745Z,12.10
2023-03-06T10:28:35.363Z,20.60
2023-03-06T10:31:10.597Z,19.73
2023-03-06T10:33:51.561Z,19.30
2023-03-06T10:36:21.314Z,21.45
2023-03-06T10:38:50.607Z,19.92
2023-03-06T10:41:24.713Z,18.58
2023-03-06T10:44:24.011Z,20.75
2023-03-06T10:46:53.781Z,17.55
2023-03-06T10:49:42.378Z,22.25
2023-03-06T10:52:23.184Z,19.40
2023-03-06T10:54:52.587Z,18.67
2023-03-06T10:57:29.425Z,17.67
2023-03-06T10:59:59.118Z,19.73
2023-03-06T11:02:30.723Z,17.40
2023-03-06T11:05:00.590Z,19.15
2023-03-06T11:07:30.016Z,20.48
2023-03-06T11:10:17.828Z,17.70
2023-03-06T11:12:58.332Z,18.30
2023-03-06T11:15:27.251Z,17.27
2023-03-06T11:18:02.863Z,18.90
2023-03-06T11:20:49.982Z,15.60
2023-03-06T11:23:22.155Z,17.85
2023-03-06T11:25:57.155Z,18.53
2023-03-06T11:28:29.745Z,19.27
2023-03-06T11:31:02.305Z,17.85
2023-03-06T11:33:35.464Z,18.15
2023-03-06T11:36:13.800Z,17.95
2023-03-06T11:38:48.886Z,18.02
2023-03-06T11:41:26.025Z,19.80
2023-03-06T11:44:01.900Z,20.83
2023-03-06T11:46:32.907Z,16.23
2023-03-06T11:49:05.126Z,17.30
2023-03-06T11:51:41.163Z,17.67
2023-03-06T11:54:13.456Z,18.42
2023-03-06T12:02:00.465Z,22.15
2023-03-06T12:04:52.402Z,18.15
2023-03-06T12:07:29.982Z,12.57
2023-03-06T12:10:09.671Z,19.20
2023-03-06T12:13:06.260Z,16.45
2023-03-06T12:15:53.828Z,16.10
2023-03-06T12:18:36.062Z,17.02
2023-03-06T12:21:08.262Z,20.63
2023-03-06T12:23:56.390Z,18.08
2023-03-06T12:26:34.504Z,17.77
2023-03-06T12:29:19.791Z,16.77
2023-03-06T12:31:56.653Z,16.75
2023-03-06T12:34:41.295Z,17.45
2023-03-06T12:37:22.623Z,18.70
2023-03-06T12:40:09.927Z,16.33
2023-03-06T12:43:02.906Z,14.90
2023-03-06T12:45:36.949Z,18.55
2023-03-06T12:48:10.618Z,16.95
2023-03-06T12:50:38.582Z,17.48
2023-03-06T12:53:08.910Z,17.67
2023-03-06T12:55:41.715Z,16.55
2023-03-06T12:58:37.588Z,18.63
2023-03-06T13:01:14.832Z,15.40
2023-03-06T13:04:00.594Z,17.13
2023-03-06T13:06:44.929Z,17.55
2023-03-06T13:09:22.623Z,17.70
2023-03-06T13:12:09.251Z,21.58
2023-03-06T13:15:01.884Z,15.13
2023-03-06T13:20:35.364Z,18.10
2023-03-06T13:23:43.126Z,17.83
2023-03-06T13:26:32.144Z,19.20
2023-03-06T13:29:01.332Z,17.83
2023-03-06T13:31:52.175Z,16.90
2023-03-06T13:34:36.245Z,15.02
2023-03-06T13:37:38.537Z,15.25
2023-03-06T13:40:41.053Z,14.50
2023-03-06T13:43:23.239Z,16.85
2023-03-06T13:45:52.447Z,15.73
2023-03-06T13:48:47.319Z,13.45
2023-03-06T13:51:23.023Z,13.52
2023-03-06T13:54:18.814Z,12.95
2023-03-06T13:57:05.802Z,18.33
2023-03-06T14:00:11.878Z,12.13
2023-03-06T14:03:10.793Z,14.95
2023-03-06T14:05:43.759Z,13.23
2023-03-06T14:08:15.881Z,15.73
2023-03-06T14:10:45.621Z,14.57
2023-03-06T14:13:20.615Z,13.82
2023-03-06T14:15:50.779Z,17.77
2023-03-06T14:18:23.738Z,13.52
2023-03-06T14:20:56.456Z,12.50
2023-03-06T14:23:35.633Z,17.27
2023-03-06T14:26:15.049Z,16.83
2023-03-06T14:28:44.686Z,13.20
2023-03-06T14:31:18.869Z,14.23
2023-03-06T14:33:53.836Z,17.02
2023-03-06T14:36:23.951Z,12.57
2023-03-06T14:38:56.913Z,15.45
2023-03-06T14:41:27.644Z,14.88
2023-03-06T14:44:09.406Z,19.00
2023-03-06T14:46:37.286Z,11.40
2023-03-06T14:49:10.654Z,15.07
2023-03-06T14:51:43.329Z,15.10
2023-03-06T14:54:16.817Z,17.13
2023-03-06T14:56:47.082Z,16.58
2023-03-06T14:59:17.380Z,16.55
2023-03-06T15:01:47.836Z,14.15
2023-03-06T15:04:25.706Z,17.35
2023-03-06T15:06:54.957Z,15.13
2023-03-06T15:09:26.527Z,15.15
2023-03-06T15:12:01.939Z,17.55
2023-03-06T15:14:36.614Z,17.05
2023-03-06T15:17:25.182Z,17.38
2023-03-06T15:19:56.084Z,17.33
2023-03-06T15:22:28.977Z,18.27
2023-03-06T15:25:18.370Z,14.02
2023-03-06T15:27:50.438Z,15.32
2023-03-06T15:30:28.043Z,15.68
2023-03-06T15:33:24.779Z,16.85
2023-03-06T15:35:57.001Z,18.50
2023-03-06T15:40:59.448Z,16.52
2023-03-06T15:43:28.389Z,15.98
2023-03-06T15:46:00.305Z,16.13
2023-03-06T15:48:28.733Z,14.15
2023-03-06T15:50:58.070Z,16.20
2023-03-06T15:53:26.001Z,15.13
2023-03-06T15:55:54.102Z,15.25
2023-03-06T15:58:24.817Z,14.30
2023-03-06T16:00:52.723Z,12.98
2023-03-06T16:03:20.522Z,14.82
2023-03-06T16:05:48.306Z,15.10
2023-03-06T16:08:17.487Z,14.73
2023-03-06T16:10:46.784Z,14.60
2023-03-06T16:25:24.670Z,14.10
2023-03-06T16:27:55.449Z,13.48
2023-03-06T16:30:24.857Z,13.98
2023-03-06T16:32:52.773Z,12.63
2023-03-06T16:35:20.660Z,11.70
2023-03-06T16:37:48.901Z,14.70
2023-03-06T16:40:22.005Z,12.80
2023-03-06T16:42:54.033Z,13.07
2023-03-06T16:45:24.033Z,13.13
2023-03-06T16:47:52.234Z,11.13
2023-03-06T16:50:26.772Z,13.52
2023-03-06T16:52:56.573Z,12.15
2023-03-06T16:55:25.404Z,14.23
2023-03-06T16:57:55.193Z,12.93
2023-03-06T17:00:24.678Z,12.40
2023-03-06T17:02:53.227Z,9.75
2023-03-06T17:05:21.541Z,12.52
2023-03-06T17:07:50.258Z,12.63
2023-03-06T19:35:54.435Z,20.88
2023-03-06T19:38:22.355Z,17.83
2023-03-06T19:40:50.537Z,19.75
2023-03-06T19:43:18.600Z,20.70
2023-03-06T19:45:46.690Z,17.02
2023-03-06T19:48:14.546Z,19.25
2023-03-06T19:50:42.388Z,18.25
2023-03-06T19:53:11.931Z,20.08
2023-03-06T21:14:49.007Z,13.93
2023-03-06T21:17:16.814Z,14.18
2023-03-06T21:19:45.927Z,16.25
2023-03-06T21:22:13.824Z,17.63
2023-03-06T21:24:41.807Z,14.25
2023-03-06T21:27:09.639Z,13.77
2023-03-06T21:29:37.463Z,12.82
2023-03-06T21:32:07.145Z,13.38
2023-03-06T21:34:34.987Z,15.23
2023-03-06T21:37:03.573Z,15.30
2023-03-06T21:39:31.348Z,15.30
2023-03-06T21:41:59.149Z,14.10
2023-03-06T21:44:27.017Z,14.48
2023-03-06T21:46:54.810Z,13.50
2023-03-06T21:49:26.228Z,16.33
2023-03-06T21:51:54.903Z,14.13
2023-03-06T21:54:23.140Z,15.27
2023-03-06T21:56:51.133Z,13.82
